createdAt,value
2018-09-05T00:00:28.945Z,27.27
2018-09-05T00:02:56.063Z,26.83
2018-09-05T00:05:23.216Z,26.60
2018-09-05T00:07:50.323Z,25.10
2018-09-05T00:10:17.531Z,26.47
2018-09-05T00:12:44.694Z,27.47
2018-09-05T00:15:11.816Z,27.20
2018-09-05T00:17:38.931Z,26.20
2018-09-05T00:20:06.090Z,25.35
2018-09-05T00:22:33.225Z,26.07
2018-09-05T00:25:00.388Z,26.57
2018-09-05T00:27:27.504Z,25.77
2018-09-05T00:29:54.619Z,25.17
2018-09-05T00:32:21.772Z,26.00
2018-09-05T00:34:48.905Z,25.67
2018-09-05T00:37:16.071Z,25.40
2018-09-05T00:39:43.194Z,25.93
2018-09-05T00:42:10.347Z,26.80
2018-09-05T00:44:37.482Z,28.33
2018-09-05T00:47:04.620Z,27.20
2018-09-05T00:49:31.769Z,26.35
2018-09-05T00:51:58.905Z,24.13
2018-09-05T00:54:26.030Z,26.70
2018-09-05T00:56:53.159Z,26.73
2018-09-05T00:59:20.346Z,24.90
2018-09-05T01:01:47.472Z,27.10
2018-09-05T01:04:14.614Z,24.47
2018-09-05T01:06:41.734Z,26.50
2018-09-05T01:09:09.193Z,26.23
2018-09-05T01:11:36.401Z,28.00
2018-09-05T01:14:03.542Z,24.35
2018-09-05T01:16:30.802Z,28.10
2018-09-05T01:38:37.888Z,29.30
2018-09-05T01:41:05.041Z,29.70
2018-09-05T01:53:18.808Z,31.67
2018-09-05T01:55:45.916Z,31.60
2018-09-05T01:58:13.033Z,30.90
2018-09-05T02:00:40.145Z,30.47
2018-09-05T02:03:07.252Z,31.17
2018-09-05T02:08:02.045Z,32.20
2018-09-05T02:10:29.893Z,32.80
2018-09-05T02:12:57.001Z,34.17
2018-09-05T02:15:24.192Z,37.63
2018-09-05T02:17:51.673Z,33.80
2018-09-05T02:20:18.804Z,37.37
2018-09-05T02:22:45.912Z,35.80
2018-09-05T02:25:13.064Z,34.73
2018-09-05T02:27:40.253Z,34.30
2018-09-05T02:30:07.733Z,33.23
2018-09-05T02:32:34.964Z,38.43
2018-09-05T02:35:02.125Z,34.10
2018-09-05T02:37:29.405Z,32.73
2018-09-05T02:39:56.532Z,32.05
2018-09-05T02:42:23.660Z,35.00
2018-09-05T02:44:50.821Z,33.23
2018-09-05T02:47:17.962Z,38.40
2018-09-05T02:49:45.088Z,38.37
2018-09-05T02:52:12.231Z,42.20
2018-09-05T02:54:39.360Z,37.73
2018-09-05T02:57:06.513Z,41.57
2018-09-05T02:59:33.621Z,39.37
2018-09-05T03:02:00.785Z,40.77
2018-09-05T03:04:27.878Z,41.63
2018-09-05T03:06:55.033Z,41.87
2018-09-05T03:09:22.260Z,43.97
2018-09-05T03:11:49.320Z,45.90
2018-09-05T03:14:16.445Z,42.13
2018-09-05T03:16:43.569Z,39.60
2018-09-05T03:19:10.732Z,41.57
2018-09-05T03:21:37.878Z,44.10
2018-09-05T03:26:31.677Z,42.93
2018-09-05T03:28:58.817Z,43.67
2018-09-05T03:31:25.936Z,42.00
2018-09-05T03:33:53.080Z,45.20
2018-09-05T03:36:20.373Z,47.43
2018-09-05T03:38:47.452Z,48.95
2018-09-05T03:41:14.576Z,49.90
2018-09-05T03:43:41.744Z,49.70
2018-09-05T03:46:08.869Z,54.73
2018-09-05T03:48:35.984Z,50.17
2018-09-05T03:51:03.129Z,51.85
2018-09-05T03:53:30.257Z,56.80
2018-09-05T03:55:57.353Z,48.00
2018-09-05T04:03:17.748Z,53.70
2018-09-05T04:05:44.870Z,52.20
2018-09-05T04:10:38.684Z,58.20
2018-09-05T04:15:32.536Z,53.60
2018-09-05T04:17:59.648Z,54.70
2018-09-05T04:20:26.814Z,50.10
2018-09-05T04:22:53.944Z,50.05
2018-09-05T04:25:21.126Z,52.05
2018-09-05T04:27:48.284Z,52.70
2018-09-05T04:37:35.953Z,51.50
2018-09-05T04:47:23.092Z,61.95
2018-09-05T04:49:50.212Z,53.05
2018-09-05T04:59:37.428Z,53.85
2018-09-05T05:02:04.608Z,52.75
2018-09-05T05:04:31.743Z,52.70
2018-09-05T05:06:58.862Z,58.10
2018-09-05T05:09:26.001Z,55.33
2018-09-05T05:11:53.120Z,56.00
2018-09-05T05:14:20.279Z,52.50
2018-09-05T05:16:47.428Z,55.27
2018-09-05T05:19:14.577Z,54.37
2018-09-05T05:21:41.724Z,56.87
2018-09-05T05:24:08.860Z,49.80
2018-09-05T05:26:35.977Z,57.07
2018-09-05T05:29:03.142Z,60.00
2018-09-05T05:31:30.279Z,50.17
2018-09-05T05:33:57.429Z,50.80
2018-09-05T05:36:24.560Z,47.30
2018-09-05T05:38:51.712Z,59.10
2018-09-05T05:41:18.858Z,61.00
2018-09-05T05:43:46.411Z,60.90
2018-09-05T05:46:13.553Z,56.50
2018-09-05T05:48:40.684Z,52.50
2018-09-05T05:51:07.832Z,50.27
2018-09-05T05:53:35.393Z,46.80
2018-09-05T05:56:02.636Z,50.03
2018-09-05T05:58:29.970Z,52.83
2018-09-05T06:00:57.170Z,59.07
2018-09-05T06:03:24.241Z,61.90
2018-09-05T06:05:51.448Z,57.85
2018-09-05T06:08:18.577Z,66.43
2018-09-05T06:10:45.694Z,54.30
2018-09-05T06:13:12.807Z,54.90
2018-09-05T06:15:40.017Z,59.15
2018-09-05T06:18:07.050Z,63.00
2018-09-05T06:20:34.212Z,68.55
2018-09-05T06:23:01.345Z,59.23
2018-09-05T06:25:28.500Z,62.60
2018-09-05T06:27:55.709Z,68.15
2018-09-05T06:30:23.492Z,54.70
2018-09-05T06:32:50.620Z,73.30
2018-09-05T06:35:17.764Z,72.63
2018-09-05T06:37:44.908Z,73.50
2018-09-05T06:40:12.067Z,67.23
2018-09-05T06:42:39.187Z,72.47
2018-09-05T06:45:06.436Z,74.30
2018-09-05T06:47:33.441Z,69.23
2018-09-05T06:50:00.589Z,71.33
2018-09-05T06:52:27.774Z,75.17
2018-09-05T06:54:54.930Z,87.40
2018-09-05T06:57:22.167Z,73.33
2018-09-05T06:59:49.328Z,80.45
2018-09-05T07:02:16.458Z,78.85
2018-09-05T07:04:43.596Z,80.83
2018-09-05T07:07:10.773Z,78.00
2018-09-05T07:09:37.948Z,70.87
2018-09-05T07:12:05.348Z,70.17
2018-09-05T07:14:32.545Z,79.27
2018-09-05T07:16:59.653Z,79.33
2018-09-05T07:19:26.818Z,81.23
2018-09-05T07:21:54.002Z,90.10
2018-09-05T07:24:21.161Z,91.07
2018-09-05T07:26:48.310Z,82.30
2018-09-05T07:29:15.441Z,89.87
2018-09-05T07:31:42.573Z,96.23
2018-09-05T07:34:09.696Z,89.43
2018-09-05T07:36:36.816Z,104.20
2018-09-05T07:39:07.316Z,93.07
2018-09-05T07:41:34.464Z,103.23
2018-09-05T07:44:01.621Z,107.40
2018-09-05T07:46:28.760Z,109.00
2018-09-05T07:48:55.992Z,117.93
2018-09-05T07:51:23.126Z,128.20
2018-09-05T07:53:50.241Z,122.63
2018-09-05T07:56:17.362Z,123.25
2018-09-05T08:06:04.658Z,119.63
2018-09-05T08:08:31.788Z,122.83
2018-09-05T08:10:58.944Z,152.87
2018-09-05T08:13:26.096Z,132.73
2018-09-05T08:15:53.253Z,165.70
2018-09-05T08:18:20.401Z,174.80
2018-09-05T08:20:47.532Z,157.30
2018-09-05T08:23:14.663Z,151.90
2018-09-05T08:25:41.793Z,150.10
2018-09-05T08:28:08.925Z,161.53
2018-09-05T08:30:36.085Z,131.50
2018-09-05T08:33:03.212Z,141.50
2018-09-05T08:35:30.494Z,139.80
2018-09-05T08:37:57.543Z,141.70
2018-09-05T08:40:24.598Z,149.60
2018-09-05T08:42:51.717Z,148.63
2018-09-05T08:45:19.083Z,142.40
2018-09-05T08:47:46.064Z,130.90
2018-09-05T08:50:13.089Z,149.00
2018-09-05T08:52:40.267Z,154.90
2018-09-05T08:55:07.463Z,167.07
2018-09-05T09:00:01.216Z,148.00
2018-09-05T09:09:48.328Z,175.17
2018-09-05T09:12:15.532Z,142.60
2018-09-05T09:14:42.677Z,163.00
2018-09-05T09:17:09.817Z,146.50
2018-09-05T09:19:36.936Z,164.65
2018-09-05T09:26:57.412Z,164.70
2018-09-05T09:31:51.140Z,182.15
2018-09-05T09:36:44.885Z,178.05
2018-09-05T09:56:19.808Z,159.15
2018-09-05T10:03:52.343Z,154.90
2018-09-05T10:06:21.274Z,148.70
2018-09-05T10:08:54.183Z,137.80
2018-09-05T10:11:27.247Z,154.60
2018-09-05T10:14:00.105Z,139.30
2018-09-05T10:16:33.015Z,129.37
2018-09-05T10:19:04.769Z,135.13
2018-09-05T10:21:31.916Z,140.60
2018-09-05T10:23:59.048Z,131.90
2018-09-05T10:36:12.752Z,106.25
2018-09-05T10:45:59.785Z,98.67
2018-09-05T10:48:26.896Z,95.20
2018-09-05T10:50:54.008Z,93.60
2018-09-05T10:53:21.117Z,87.20
2018-09-05T10:55:48.252Z,92.13
2018-09-05T10:58:15.469Z,89.97
2018-09-05T11:00:42.489Z,92.17
2018-09-05T11:03:09.608Z,93.13
2018-09-05T11:05:36.741Z,88.77
2018-09-05T11:08:04.042Z,92.37
2018-09-05T11:10:31.181Z,93.50
2018-09-05T11:12:58.268Z,84.07
2018-09-05T11:15:25.387Z,86.33
2018-09-05T11:17:52.500Z,90.83
2018-09-05T11:20:19.633Z,86.57
2018-09-05T11:22:46.753Z,82.87
2018-09-05T11:25:13.872Z,85.80
2018-09-05T11:27:41.027Z,82.57
2018-09-05T11:30:10.976Z,77.43
2018-09-05T11:32:38.176Z,74.73
2018-09-05T11:35:05.388Z,77.67
2018-09-05T11:37:33.144Z,74.07
2018-09-05T11:40:00.316Z,76.03
2018-09-05T11:42:27.434Z,75.40
2018-09-05T11:44:54.549Z,70.53
2018-09-05T11:47:21.685Z,69.33
2018-09-05T11:49:48.838Z,68.77
2018-09-05T11:52:15.980Z,64.20
2018-09-05T11:54:43.112Z,67.70
2018-09-05T11:57:10.260Z,68.00
2018-09-05T11:59:37.376Z,66.73
2018-09-05T12:02:04.565Z,71.60
2018-09-05T12:04:31.693Z,65.17
2018-09-05T12:06:58.849Z,61.43
2018-09-05T12:09:25.945Z,59.63
2018-09-05T12:11:53.084Z,59.90
2018-09-05T12:14:20.205Z,61.37
2018-09-05T12:48:56.177Z,57.05
2018-09-05T12:56:17.192Z,60.60
2018-09-05T12:58:44.309Z,54.87
2018-09-05T13:01:11.452Z,56.90
2018-09-05T13:03:40.678Z,60.57
2018-09-05T13:06:09.374Z,53.87
2018-09-05T13:08:39.155Z,56.17
2018-09-05T13:11:10.369Z,54.60
2018-09-05T13:13:43.664Z,53.20
2018-09-05T13:16:12.746Z,56.10
2018-09-05T13:18:44.523Z,54.90
2018-09-05T13:21:12.679Z,55.97
2018-09-05T13:23:42.655Z,56.87
2018-09-05T13:26:10.205Z,55.63
2018-09-05T13:28:48.415Z,54.18
2018-09-05T13:31:17.773Z,53.43
2018-09-05T13:34:02.796Z,53.47
2018-09-05T13:36:50.936Z,52.13
2018-09-05T13:39:21.966Z,49.45
2018-09-05T13:41:50.532Z,51.93
2018-09-05T13:44:18.327Z,47.73
2018-09-05T13:46:47.479Z,51.73
2018-09-05T13:49:15.185Z,54.97
2018-09-05T13:51:47.269Z,56.70
2018-09-05T13:54:14.633Z,53.00
2018-09-05T13:56:41.964Z,50.17
2018-09-05T13:59:09.232Z,49.00
2018-09-05T14:01:36.420Z,49.57
2018-09-05T14:04:04.681Z,51.00
2018-09-05T14:06:32.597Z,50.37
2018-09-05T14:08:59.798Z,47.20
2018-09-05T14:11:27.065Z,47.37
2018-09-05T14:13:54.189Z,47.57
2018-09-05T14:16:21.398Z,52.07
2018-09-05T14:18:49.768Z,50.80
2018-09-05T14:21:17.145Z,50.50
2018-09-05T14:23:44.435Z,57.00
2018-09-05T14:26:11.745Z,49.55
2018-09-05T14:28:38.940Z,45.60
2018-09-05T14:31:06.313Z,47.70
2018-09-05T14:33:33.832Z,48.00
2018-09-05T14:36:00.977Z,48.00
2018-09-05T14:38:28.190Z,49.95
2018-09-05T14:40:55.330Z,50.40
2018-09-05T14:43:22.434Z,49.93
2018-09-05T14:45:49.597Z,47.93
2018-09-05T14:48:16.783Z,45.47
2018-09-05T14:50:43.891Z,52.20
2018-09-05T14:53:11.016Z,50.50
2018-09-05T14:55:38.316Z,50.20
2018-09-05T14:58:05.862Z,50.17
2018-09-05T15:00:33.009Z,48.03
2018-09-05T15:03:00.374Z,50.33
2018-09-05T15:05:27.583Z,49.17
2018-09-05T15:07:54.773Z,47.07
2018-09-05T15:10:21.950Z,46.13
2018-09-05T15:12:49.133Z,51.00
2018-09-05T15:15:16.480Z,46.53
2018-09-05T15:17:43.684Z,50.33
2018-09-05T15:20:10.796Z,46.00
2018-09-05T15:22:38.161Z,47.10
2018-09-05T15:25:05.632Z,44.93
2018-09-05T15:27:32.810Z,47.67
2018-09-05T15:29:59.928Z,46.70
2018-09-05T15:32:27.034Z,44.90
2018-09-05T15:34:54.216Z,44.83
2018-09-05T15:37:21.336Z,44.50
2018-09-05T15:39:48.725Z,47.47
2018-09-05T15:42:15.857Z,47.20
2018-09-05T15:44:42.981Z,49.63
2018-09-05T15:47:10.101Z,45.63
2018-09-05T15:49:37.240Z,44.13
2018-09-05T15:52:04.363Z,45.13
2018-09-05T15:54:31.492Z,43.33
2018-09-05T15:56:58.650Z,48.15
2018-09-05T15:59:25.857Z,40.73
2018-09-05T16:01:53.769Z,42.27
2018-09-05T16:04:20.920Z,40.97
2018-09-05T16:06:48.113Z,41.13
2018-09-05T16:09:16.694Z,43.85
2018-09-05T16:11:44.990Z,46.40
2018-09-05T16:14:12.325Z,43.83
2018-09-05T16:16:39.977Z,43.55
2018-09-05T16:19:07.415Z,45.93
2018-09-05T16:21:34.671Z,42.30
2018-09-05T16:24:02.301Z,42.90
2018-09-05T16:26:29.529Z,43.73
2018-09-05T16:28:57.297Z,43.47
2018-09-05T16:31:27.211Z,44.33
2018-09-05T16:33:55.571Z,45.30
2018-09-05T16:39:10.035Z,40.73
2018-09-05T16:41:40.567Z,41.07
2018-09-05T16:44:11.002Z,41.73
2018-09-05T16:46:42.506Z,41.43
2018-09-05T16:49:10.413Z,44.40
2018-09-05T16:51:39.680Z,40.40
2018-09-05T16:54:08.475Z,41.23
2018-09-05T16:56:37.291Z,40.93
2018-09-05T16:59:08.626Z,39.37
2018-09-05T17:01:38.843Z,39.90
2018-09-05T17:04:06.235Z,39.47
2018-09-05T17:06:42.971Z,43.13
2018-09-05T17:09:11.948Z,37.97
2018-09-05T17:11:39.650Z,38.47
2018-09-05T17:14:09.354Z,39.33
2018-09-05T17:16:43.102Z,37.93
2018-09-05T17:19:16.211Z,41.83
2018-09-05T17:22:08.117Z,40.40
2018-09-05T17:24:39.165Z,39.80
2018-09-05T17:27:12.084Z,39.07
2018-09-05T17:29:50.603Z,37.53
2018-09-05T17:32:22.948Z,36.97
2018-09-05T17:34:54.782Z,39.80
2018-09-05T17:37:31.700Z,38.20
2018-09-05T17:39:59.360Z,37.60
2018-09-05T17:42:26.548Z,39.30
2018-09-05T17:45:06.645Z,39.17
2018-09-05T17:47:43.615Z,37.53
2018-09-05T17:50:23.905Z,38.17
2018-09-05T17:52:51.425Z,39.30
2018-09-05T17:55:18.545Z,39.50
2018-09-05T17:57:45.672Z,37.43
2018-09-05T18:00:12.838Z,38.63
2018-09-05T18:02:39.956Z,40.03
2018-09-05T18:05:07.094Z,35.50
2018-09-05T18:07:34.208Z,34.90
2018-09-05T18:10:01.465Z,39.47
2018-09-05T18:12:28.587Z,38.30
2018-09-05T18:14:55.700Z,38.33
2018-09-05T18:17:23.148Z,35.37
2018-09-05T18:19:50.356Z,37.20
2018-09-05T18:22:17.476Z,34.33
2018-09-05T18:24:44.604Z,34.00
2018-09-05T18:27:11.733Z,33.70
2018-09-05T18:29:38.833Z,34.33
2018-09-05T18:32:05.988Z,33.63
2018-09-05T18:34:33.135Z,32.77
2018-09-05T18:37:00.241Z,34.80
2018-09-05T18:39:27.374Z,34.97
2018-09-05T18:41:54.493Z,34.13
2018-09-05T18:44:21.590Z,35.20
2018-09-05T18:46:48.706Z,38.93
2018-09-05T18:49:15.893Z,36.70
2018-09-05T18:51:43.072Z,35.63
2018-09-05T18:54:10.189Z,36.73
2018-09-05T18:56:37.316Z,38.87
2018-09-05T18:59:04.650Z,34.43
2018-09-05T19:01:31.744Z,35.00
2018-09-05T19:03:58.856Z,34.83
2018-09-05T19:06:25.962Z,36.40
2018-09-05T19:08:53.100Z,35.00
2018-09-05T19:11:20.224Z,36.43
2018-09-05T19:13:47.318Z,36.37
2018-09-05T19:16:14.425Z,37.87
2018-09-05T19:18:41.571Z,36.20
2018-09-05T19:21:08.757Z,36.60
2018-09-05T19:23:35.890Z,35.33
2018-09-05T19:26:03.051Z,35.00
2018-09-05T19:28:30.192Z,34.80
2018-09-05T19:30:57.362Z,36.67
2018-09-05T19:33:24.520Z,36.07
2018-09-05T19:35:51.628Z,36.10
2018-09-05T19:38:18.741Z,37.83
2018-09-05T19:40:45.841Z,36.87
2018-09-05T19:43:12.982Z,33.13
2018-09-05T19:45:40.093Z,35.73
2018-09-05T19:48:07.264Z,37.67
2018-09-05T19:50:34.357Z,35.63
2018-09-05T19:53:01.462Z,37.15
2018-09-05T19:55:28.632Z,36.83
2018-09-05T19:57:55.816Z,37.77
2018-09-05T20:00:22.928Z,39.17
2018-09-05T20:02:50.029Z,36.57
2018-09-05T20:05:17.160Z,36.67
2018-09-05T20:07:44.280Z,37.23
2018-09-05T20:10:11.387Z,39.53
2018-09-05T20:12:38.495Z,40.50
2018-09-05T20:15:05.625Z,37.43
2018-09-05T20:17:32.729Z,42.20
2018-09-05T20:19:59.894Z,37.43
2018-09-05T20:22:27.876Z,37.70
2018-09-05T20:24:55.032Z,40.50
2018-09-05T20:27:22.202Z,39.53
2018-09-05T20:29:49.321Z,36.70
2018-09-05T20:32:16.464Z,38.23
2018-09-05T20:34:43.612Z,37.03
2018-09-05T20:37:10.718Z,36.57
2018-09-05T20:39:37.824Z,39.20
2018-09-05T20:42:05.080Z,38.03
2018-09-05T20:44:32.190Z,38.85
2018-09-05T20:46:59.308Z,35.10
2018-09-05T20:49:26.417Z,41.53
2018-09-05T20:51:53.541Z,39.20
2018-09-05T20:54:20.767Z,38.63
2018-09-05T20:56:47.919Z,39.47
2018-09-05T20:59:15.084Z,37.33
2018-09-05T21:01:42.227Z,36.53
2018-09-05T21:04:09.348Z,37.77
2018-09-05T21:06:36.453Z,36.17
2018-09-05T21:09:05.393Z,36.23
2018-09-05T21:11:32.508Z,36.80
2018-09-05T21:13:59.680Z,35.70
2018-09-05T21:16:26.812Z,38.57
2018-09-05T21:18:53.914Z,37.37
2018-09-05T21:21:21.039Z,41.45
2018-09-05T21:23:48.164Z,44.10
2018-09-05T21:26:15.264Z,41.73
2018-09-05T21:28:42.362Z,47.33
2018-09-05T21:31:09.480Z,46.10
2018-09-05T21:33:36.789Z,50.40
2018-09-05T21:36:03.928Z,57.43
2018-09-05T21:38:31.024Z,56.97
2018-09-05T21:40:58.143Z,54.95
2018-09-05T21:43:25.264Z,35.33
2018-09-05T21:45:52.416Z,25.60
2018-09-05T21:48:19.597Z,20.07
2018-09-05T21:50:46.660Z,28.53
2018-09-05T21:53:13.784Z,17.47
2018-09-05T21:55:40.904Z,17.77
2018-09-05T21:58:08.004Z,11.90
2018-09-05T22:00:35.149Z,11.23
2018-09-05T22:03:02.292Z,11.10
2018-09-05T22:05:29.420Z,12.80
2018-09-05T22:07:56.553Z,11.43
2018-09-05T22:10:23.673Z,11.53
2018-09-05T22:12:50.972Z,13.53
2018-09-05T22:15:18.120Z,10.37
2018-09-05T22:17:45.219Z,10.43
2018-09-05T22:20:12.316Z,10.47
2018-09-05T22:22:39.400Z,11.83
2018-09-05T22:25:06.513Z,11.17
2018-09-05T22:27:33.609Z,9.90
2018-09-05T22:30:00.748Z,12.13
2018-09-05T22:32:27.856Z,10.53
2018-09-05T22:34:55.212Z,11.40
2018-09-05T22:37:22.888Z,13.27
2018-09-05T22:39:50.036Z,17.03
2018-09-05T22:42:17.140Z,12.77
2018-09-05T22:44:56.347Z,14.87
2018-09-05T22:47:41.848Z,14.97
2018-09-05T22:52:27.004Z,16.23
2018-09-05T22:57:27.232Z,17.47
2018-09-05T23:00:09.992Z,18.17
2018-09-05T23:02:47.019Z,18.83
2018-09-05T23:07:27.931Z,18.70
2018-09-05T23:10:06.440Z,20.83
2018-09-05T23:12:45.029Z,21.93
2018-09-05T23:15:23.708Z,19.27
2018-09-05T23:19:36.272Z,21.77
2018-09-05T23:22:03.409Z,25.90
2018-09-05T23:24:30.500Z,27.53
2018-09-05T23:26:57.600Z,33.67
2018-09-05T23:29:24.740Z,32.47
2018-09-05T23:31:51.850Z,32.53
2018-09-05T23:34:18.964Z,41.13
2018-09-05T23:36:46.109Z,50.37
2018-09-05T23:39:13.220Z,49.63
2018-09-05T23:41:40.320Z,64.53
2018-09-05T23:44:07.449Z,53.77
2018-09-05T23:46:34.564Z,65.00
2018-09-05T23:49:01.684Z,58.40
2018-09-05T23:51:28.787Z,64.53
2018-09-05T23:53:55.889Z,81.90
2018-09-05T23:56:23.009Z,87.80
2018-09-05T23:58:50.112Z,104.53
